createdAt,value
2022-08-26T00:01:56.486Z,18.59
2022-08-26T00:04:25.496Z,18.57
2022-08-26T00:06:54.175Z,18.59
2022-08-26T00:09:21.834Z,18.59
2022-08-26T00:11:49.362Z,18.58
2022-08-26T00:14:17.908Z,18.56
2022-08-26T00:16:48.238Z,18.58
2022-08-26T00:19:18.076Z,18.59
2022-08-26T00:21:45.721Z,18.56
2022-08-26T00:24:13.359Z,18.55
2022-08-26T00:26:41.306Z,18.50
2022-08-26T00:29:08.714Z,18.48
2022-08-26T00:31:36.719Z,18.43
2022-08-26T00:34:04.426Z,18.39
2022-08-26T00:36:32.282Z,18.33
2022-08-26T00:38:59.197Z,18.29
2022-08-26T00:41:26.549Z,18.26
2022-08-26T00:43:54.635Z,18.26
2022-08-26T00:46:25.381Z,18.21
2022-08-26T00:49:05.574Z,18.15
2022-08-26T00:51:54.460Z,18.04
2022-08-26T00:54:27.315Z,17.96
2022-08-26T00:56:54.122Z,17.87
2022-08-26T00:59:22.665Z,17.80
2022-08-26T01:01:49.635Z,17.77
2022-08-26T01:04:21.339Z,17.72
2022-08-26T01:06:50.912Z,17.69
2022-08-26T01:09:19.391Z,17.71
2022-08-26T01:11:49.781Z,17.75
2022-08-26T01:14:20.135Z,17.76
2022-08-26T01:16:48.404Z,17.77
2022-08-26T01:19:42.724Z,17.73
2022-08-26T01:22:28.097Z,17.66
2022-08-26T01:24:56.115Z,17.56
2022-08-26T01:27:24.434Z,17.47
2022-08-26T01:29:51.787Z,17.41
2022-08-26T01:32:23.448Z,17.34
2022-08-26T01:34:50.940Z,17.29
2022-08-26T01:37:26.341Z,17.23
2022-08-26T01:39:55.345Z,17.18
2022-08-26T01:42:24.467Z,17.13
2022-08-26T01:44:58.618Z,17.09
2022-08-26T01:47:30.077Z,17.07
2022-08-26T01:50:00.038Z,17.08
2022-08-26T01:52:30.208Z,17.12
2022-08-26T01:54:59.542Z,17.20
2022-08-26T01:57:27.576Z,17.30
2022-08-26T01:59:58.452Z,17.35
2022-08-26T02:02:25.477Z,17.41
2022-08-26T02:05:06.064Z,17.48
2022-08-26T02:07:34.078Z,17.51
2022-08-26T02:10:00.988Z,17.54
2022-08-26T02:12:28.557Z,17.59
2022-08-26T02:14:58.995Z,17.60
2022-08-26T02:17:39.867Z,17.62
2022-08-26T02:20:13.354Z,17.65
2022-08-26T02:22:42.728Z,17.63
2022-08-26T02:25:40.309Z,17.58
2022-08-26T02:28:07.784Z,17.58
2022-08-26T02:30:35.261Z,17.56
2022-08-26T02:33:03.990Z,17.50
2022-08-26T02:35:32.861Z,17.48
2022-08-26T02:38:00.423Z,17.44
2022-08-26T02:40:31.064Z,17.47
2022-08-26T02:42:58.602Z,17.50
2022-08-26T02:45:28.967Z,17.46
2022-08-26T02:47:58.142Z,17.42
2022-08-26T02:50:27.462Z,17.34
2022-08-26T02:52:54.503Z,17.30
2022-08-26T02:55:21.161Z,17.25
2022-08-26T02:57:52.540Z,17.23
2022-08-26T03:00:19.597Z,17.20
2022-08-26T03:02:46.349Z,17.16
2022-08-26T03:05:13.563Z,17.15
2022-08-26T03:07:40.419Z,17.15
2022-08-26T03:10:08.874Z,17.15
2022-08-26T03:12:36.638Z,17.18
2022-08-26T03:15:17.621Z,17.20
2022-08-26T03:17:47.898Z,17.21
2022-08-26T03:20:17.428Z,17.22
2022-08-26T03:22:45.006Z,17.26
2022-08-26T03:25:15.386Z,17.30
2022-08-26T03:27:42.979Z,17.31
2022-08-26T03:30:29.972Z,17.31
2022-08-26T03:32:57.259Z,17.33
2022-08-26T03:35:24.096Z,17.32
2022-08-26T03:37:52.646Z,17.32
2022-08-26T03:40:20.555Z,17.34
2022-08-26T03:42:47.855Z,17.32
2022-08-26T03:45:16.831Z,17.29
2022-08-26T03:47:44.719Z,17.22
2022-08-26T03:50:14.456Z,17.17
2022-08-26T03:52:44.022Z,17.08
2022-08-26T03:55:11.522Z,17.00
2022-08-26T03:57:38.197Z,16.96
2022-08-26T04:00:07.323Z,16.86
2022-08-26T04:02:34.213Z,16.81
2022-08-26T04:05:00.911Z,16.77
2022-08-26T04:07:28.261Z,16.72
2022-08-26T04:09:59.027Z,16.63
2022-08-26T04:12:25.904Z,16.57
2022-08-26T04:14:53.874Z,16.55
2022-08-26T04:17:24.994Z,16.54
2022-08-26T04:19:54.909Z,16.51
2022-08-26T04:22:24.953Z,16.49
2022-08-26T04:24:52.333Z,16.35
2022-08-26T04:27:20.814Z,16.21
2022-08-26T04:29:51.462Z,16.09
2022-08-26T04:32:21.839Z,15.99
2022-08-26T04:34:48.547Z,15.93
2022-08-26T04:37:16.458Z,15.86
2022-08-26T04:39:44.923Z,15.83
2022-08-26T04:42:13.945Z,15.85
2022-08-26T04:44:41.189Z,15.82
2022-08-26T04:47:08.082Z,15.76
2022-08-26T04:49:35.791Z,15.72
2022-08-26T04:52:03.685Z,15.67
2022-08-26T04:54:31.841Z,15.58
2022-08-26T04:56:59.237Z,15.52
2022-08-26T04:59:26.260Z,15.50
2022-08-26T05:01:57.491Z,15.48
2022-08-26T05:04:24.448Z,15.47
2022-08-26T05:06:54.835Z,15.44
2022-08-26T05:09:24.807Z,15.40
2022-08-26T05:11:52.399Z,15.40
2022-08-26T05:14:21.449Z,15.38
2022-08-26T05:16:49.350Z,15.36
2022-08-26T05:19:17.217Z,15.36
2022-08-26T05:21:46.411Z,15.34
2022-08-26T05:24:14.660Z,15.34
2022-08-26T05:26:41.756Z,15.34
2022-08-26T05:29:11.567Z,15.33
2022-08-26T05:31:38.560Z,15.31
2022-08-26T05:34:06.037Z,15.31
2022-08-26T05:36:35.970Z,15.32
2022-08-26T05:39:05.931Z,15.31
2022-08-26T05:41:36.574Z,15.31
2022-08-26T05:44:08.897Z,15.30
2022-08-26T05:46:37.164Z,15.33
2022-08-26T05:49:05.219Z,15.37
2022-08-26T05:51:32.758Z,15.42
2022-08-26T05:54:02.199Z,15.42
2022-08-26T05:56:30.669Z,15.44
2022-08-26T05:58:58.441Z,15.47
2022-08-26T06:01:27.882Z,15.50
2022-08-26T06:04:01.646Z,15.50
2022-08-26T06:06:34.395Z,15.52
2022-08-26T06:09:05.320Z,15.53
2022-08-26T06:11:33.427Z,15.56
2022-08-26T06:14:06.171Z,15.56
2022-08-26T06:16:36.339Z,15.58
2022-08-26T06:19:11.028Z,15.57
2022-08-26T06:21:40.298Z,15.57
2022-08-26T06:24:28.609Z,15.55
2022-08-26T06:26:57.558Z,15.57
2022-08-26T06:29:26.164Z,15.54
2022-08-26T06:31:54.397Z,15.52
2022-08-26T06:34:29.624Z,15.47
2022-08-26T06:36:59.688Z,15.48
2022-08-26T06:39:28.120Z,15.50
2022-08-26T06:42:00.077Z,15.58
2022-08-26T06:44:27.274Z,15.63
2022-08-26T06:46:54.680Z,15.61
2022-08-26T06:49:27.240Z,15.59
2022-08-26T06:51:58.506Z,15.57
2022-08-26T06:54:26.076Z,15.60
2022-08-26T06:56:52.898Z,15.60
2022-08-26T06:59:19.703Z,15.62
2022-08-26T07:01:46.753Z,15.62
2022-08-26T07:04:20.149Z,15.63
2022-08-26T07:06:52.696Z,15.66
2022-08-26T07:09:21.334Z,15.66
2022-08-26T07:11:48.296Z,15.61
2022-08-26T07:14:17.045Z,15.56
2022-08-26T07:16:48.277Z,15.53
2022-08-26T07:19:15.571Z,15.59
2022-08-26T07:21:44.250Z,15.63
2022-08-26T07:24:11.380Z,15.67
2022-08-26T07:26:43.115Z,15.70
2022-08-26T07:29:12.668Z,15.70
2022-08-26T07:31:42.352Z,15.76
2022-08-26T07:34:10.625Z,15.72
2022-08-26T07:36:37.626Z,15.75
2022-08-26T07:39:05.044Z,15.80
2022-08-26T07:41:31.805Z,15.87
2022-08-26T07:43:59.720Z,15.86
2022-08-26T07:46:27.081Z,15.82
2022-08-26T07:48:56.739Z,15.78
2022-08-26T07:51:23.743Z,15.81
2022-08-26T07:53:53.072Z,15.83
2022-08-26T07:56:21.819Z,15.79
2022-08-26T07:58:51.411Z,15.78
2022-08-26T08:01:24.353Z,15.83
2022-08-26T08:03:54.203Z,15.85
2022-08-26T08:06:27.290Z,15.89
2022-08-26T08:08:55.495Z,15.94
2022-08-26T08:11:23.247Z,15.92
2022-08-26T08:13:52.381Z,15.87
2022-08-26T08:16:28.458Z,15.91
2022-08-26T08:18:59.213Z,15.85
2022-08-26T08:21:28.945Z,15.78
2022-08-26T08:23:57.465Z,15.71
2022-08-26T08:26:25.883Z,15.73
2022-08-26T08:28:57.393Z,15.76
2022-08-26T08:31:56.759Z,15.82
2022-08-26T08:34:17.117Z,15.86
2022-08-26T08:36:46.489Z,15.81
2022-08-26T08:39:13.949Z,15.78
2022-08-26T08:41:56.110Z,15.79
2022-08-26T08:47:04.119Z,15.81
2022-08-26T08:49:33.402Z,15.81
2022-08-26T08:52:12.188Z,15.78
2022-08-26T08:54:38.916Z,15.80
2022-08-26T08:57:18.139Z,15.79
2022-08-26T08:59:59.496Z,15.79
2022-08-26T09:02:50.407Z,15.78
2022-08-26T09:05:32.071Z,15.78
2022-08-26T09:08:12.175Z,15.81
2022-08-26T09:10:43.805Z,15.82
2022-08-26T09:13:16.821Z,15.84
2022-08-26T09:16:10.120Z,15.93
2022-08-26T09:18:39.893Z,16.08
2022-08-26T09:21:12.553Z,16.16
2022-08-26T09:23:42.783Z,16.20
2022-08-26T09:26:28.743Z,16.28
2022-08-26T09:29:05.308Z,16.29
2022-08-26T09:31:34.276Z,16.25
2022-08-26T09:34:17.391Z,16.25
2022-08-26T09:36:47.721Z,16.32
2022-08-26T09:39:37.752Z,16.29
2022-08-26T09:42:22.634Z,16.34
2022-08-26T09:44:57.035Z,16.40
2022-08-26T09:47:52.625Z,16.37
2022-08-26T09:50:39.728Z,16.39
2022-08-26T09:53:13.056Z,16.52
2022-08-26T09:55:42.668Z,16.49
2022-08-26T09:58:15.397Z,16.52
2022-08-26T10:01:03.693Z,16.52
2022-08-26T10:03:34.629Z,16.57
2022-08-26T10:06:20.944Z,16.66
2022-08-26T10:09:00.058Z,16.79
2022-08-26T10:11:54.062Z,16.90
2022-08-26T10:14:31.211Z,16.87
2022-08-26T10:17:25.121Z,16.86
2022-08-26T10:19:57.952Z,16.79
2022-08-26T10:22:30.794Z,16.82
2022-08-26T10:25:02.724Z,16.96
2022-08-26T10:27:53.850Z,17.16
2022-08-26T10:30:27.738Z,17.30
2022-08-26T10:33:06.759Z,17.32
2022-08-26T10:35:37.152Z,17.32
2022-08-26T10:38:17.357Z,17.52
2022-08-26T10:40:59.131Z,17.64
2022-08-26T10:43:31.043Z,17.83
2022-08-26T10:46:03.909Z,17.87
2022-08-26T10:48:48.551Z,17.93
2022-08-26T10:51:19.584Z,18.04
2022-08-26T10:54:05.352Z,18.18
2022-08-26T10:56:44.100Z,18.47
2022-08-26T10:59:43.755Z,18.51
2022-08-26T11:02:33.811Z,18.37
2022-08-26T11:05:04.602Z,18.27
2022-08-26T11:07:37.532Z,18.23
2022-08-26T11:10:31.790Z,18.26
2022-08-26T11:13:07.237Z,18.25
2022-08-26T11:15:40.270Z,18.38
2022-08-26T11:18:12.608Z,18.38
2022-08-26T11:20:44.374Z,18.32
2022-08-26T11:23:12.621Z,18.35
2022-08-26T11:26:11.006Z,18.41
2022-08-26T11:28:44.153Z,18.49
2022-08-26T11:31:38.429Z,18.66
2022-08-26T11:34:10.930Z,18.74
2022-08-26T11:36:45.688Z,18.62
2022-08-26T11:39:28.884Z,18.34
2022-08-26T11:42:35.780Z,18.28
2022-08-26T11:45:19.394Z,18.39
2022-08-26T11:47:46.829Z,18.50
2022-08-26T11:50:23.598Z,18.76
2022-08-26T11:52:55.020Z,19.10
2022-08-26T11:55:23.252Z,19.38
2022-08-26T11:57:57.585Z,19.80
2022-08-26T12:00:33.554Z,20.30
2022-08-26T12:03:05.248Z,20.25
2022-08-26T12:05:38.306Z,20.09
2022-08-26T12:08:11.487Z,19.92
2022-08-26T12:10:38.480Z,19.67
2022-08-26T12:13:07.312Z,19.47
2022-08-26T12:15:35.852Z,19.29
2022-08-26T12:18:29.180Z,19.10
2022-08-26T12:20:59.782Z,18.85
2022-08-26T12:23:36.803Z,18.59
2022-08-26T12:26:23.349Z,18.48
2022-08-26T12:29:12.762Z,18.50
2022-08-26T12:31:48.438Z,18.57
2022-08-26T12:34:18.142Z,18.76
2022-08-26T12:37:03.736Z,18.91
2022-08-26T12:39:37.400Z,18.97
2022-08-26T12:42:21.838Z,18.89
2022-08-26T12:44:58.533Z,18.65
2022-08-26T12:47:41.917Z,18.40
2022-08-26T12:50:16.507Z,18.58
2022-08-26T12:52:51.716Z,19.01
2022-08-26T12:55:23.841Z,19.67
2022-08-26T12:57:50.730Z,20.27
2022-08-26T13:00:28.334Z,20.71
2022-08-26T13:02:55.403Z,20.89
2022-08-26T13:05:35.860Z,21.05
2022-08-26T13:08:10.625Z,20.86
2022-08-26T13:10:40.139Z,20.51
2022-08-26T13:13:07.092Z,20.23
2022-08-26T13:15:34.054Z,19.91
2022-08-26T13:18:03.431Z,19.82
2022-08-26T13:20:30.695Z,19.99
2022-08-26T13:22:58.965Z,20.37
2022-08-26T13:25:35.813Z,20.74
2022-08-26T13:28:02.630Z,20.93
2022-08-26T13:30:29.370Z,20.91
2022-08-26T13:33:00.675Z,20.77
2022-08-26T13:35:28.959Z,20.53
2022-08-26T13:37:55.733Z,20.39
2022-08-26T13:40:26.173Z,20.45
2022-08-26T13:42:52.925Z,20.69
2022-08-26T13:45:19.681Z,20.93
2022-08-26T13:47:46.663Z,21.03
2022-08-26T13:50:13.405Z,20.88
2022-08-26T13:52:40.045Z,20.60
2022-08-26T13:55:08.099Z,20.32
2022-08-26T13:57:34.922Z,19.93
2022-08-26T14:00:01.771Z,19.66
2022-08-26T14:02:28.911Z,19.49
2022-08-26T14:04:56.050Z,19.38
2022-08-26T14:07:23.485Z,19.32
2022-08-26T14:09:50.717Z,19.27
2022-08-26T14:12:17.780Z,19.27
2022-08-26T14:14:45.097Z,19.40
2022-08-26T14:17:17.283Z,19.45
2022-08-26T14:19:46.107Z,19.56
2022-08-26T14:22:15.441Z,19.75
2022-08-26T14:24:42.303Z,19.90
2022-08-26T14:27:08.976Z,20.03
2022-08-26T14:29:35.720Z,20.02
2022-08-26T14:32:10.065Z,19.96
2022-08-26T14:34:37.428Z,19.91
2022-08-26T14:37:07.443Z,19.83
2022-08-26T14:39:36.118Z,19.79
2022-08-26T14:42:02.899Z,19.76
2022-08-26T14:44:32.609Z,19.77
2022-08-26T14:47:02.594Z,19.78
2022-08-26T14:49:32.253Z,19.79
2022-08-26T14:51:59.622Z,19.80
2022-08-26T14:54:26.775Z,19.79
2022-08-26T14:56:56.720Z,19.73
2022-08-26T14:59:32.527Z,19.73
2022-08-26T15:02:00.706Z,19.72
2022-08-26T15:04:28.438Z,19.74
2022-08-26T15:06:58.816Z,19.73
2022-08-26T15:09:27.027Z,19.71
2022-08-26T15:11:53.913Z,19.64
2022-08-26T15:14:22.050Z,19.60
2022-08-26T15:16:50.612Z,19.57
2022-08-26T15:19:17.750Z,19.55
2022-08-26T15:21:45.789Z,19.56
2022-08-26T15:24:13.886Z,19.62
2022-08-26T15:26:41.065Z,19.71
2022-08-26T15:29:07.966Z,19.74
2022-08-26T15:31:35.063Z,19.82
2022-08-26T15:34:12.130Z,20.02
2022-08-26T15:36:44.787Z,20.15
2022-08-26T15:39:12.306Z,20.31
2022-08-26T15:41:39.664Z,20.51
2022-08-26T15:44:07.916Z,20.79
2022-08-26T15:46:36.411Z,21.04
2022-08-26T15:49:04.716Z,21.21
2022-08-26T15:51:35.371Z,21.28
2022-08-26T15:54:12.570Z,21.28
2022-08-26T15:56:39.322Z,21.33
2022-08-26T15:59:08.156Z,21.47
2022-08-26T16:01:35.710Z,21.59
2022-08-26T16:04:03.310Z,21.65
2022-08-26T16:06:32.594Z,21.60
2022-08-26T16:08:59.882Z,21.58
2022-08-26T16:11:27.640Z,21.89
2022-08-26T16:13:55.160Z,27.03
2022-08-26T16:16:22.565Z,26.15
2022-08-26T16:18:49.736Z,25.06
2022-08-26T16:21:21.659Z,24.16
2022-08-26T16:23:49.080Z,23.38
2022-08-26T16:26:21.038Z,22.76
2022-08-26T16:28:47.994Z,22.28
2022-08-26T16:31:15.581Z,21.93
2022-08-26T16:33:42.355Z,22.07
2022-08-26T16:36:09.713Z,23.10
2022-08-26T16:38:37.876Z,25.55
2022-08-26T16:41:05.575Z,27.04
2022-08-26T16:43:32.326Z,29.28
2022-08-26T16:45:59.585Z,27.67
2022-08-26T16:48:27.563Z,26.36
2022-08-26T16:50:55.725Z,25.11
2022-08-26T16:53:23.314Z,24.16
2022-08-26T16:55:51.328Z,23.46
2022-08-26T16:58:22.003Z,22.87
2022-08-26T17:00:49.697Z,22.45
2022-08-26T17:03:16.965Z,22.16
2022-08-26T17:05:43.707Z,21.87
2022-08-26T17:08:11.190Z,21.63
2022-08-26T17:10:38.097Z,21.37
2022-08-26T17:13:05.082Z,21.11
2022-08-26T17:15:32.376Z,20.95
2022-08-26T17:17:59.209Z,20.83
2022-08-26T17:20:26.746Z,20.71
2022-08-26T17:22:55.463Z,20.64
2022-08-26T17:25:28.466Z,20.57
2022-08-26T17:30:23.935Z,20.49
2022-08-26T17:32:50.883Z,20.43
2022-08-26T17:35:18.156Z,20.40
2022-08-26T17:37:45.212Z,20.29
2022-08-26T17:40:15.827Z,20.23
2022-08-26T17:42:42.870Z,20.14
2022-08-26T17:45:11.065Z,20.07
2022-08-26T17:47:38.668Z,20.00
2022-08-26T17:50:09.370Z,19.91
2022-08-26T17:52:37.738Z,19.86
2022-08-26T17:55:06.075Z,19.83
2022-08-26T17:57:33.326Z,19.82
2022-08-26T18:00:11.714Z,19.79
2022-08-26T18:02:39.165Z,19.74
2022-08-26T18:05:08.366Z,19.63
2022-08-26T18:07:43.993Z,19.63
2022-08-26T18:10:13.492Z,19.70
2022-08-26T18:12:41.751Z,19.85
2022-08-26T18:15:10.559Z,19.90
2022-08-26T18:17:39.406Z,19.88
2022-08-26T18:20:11.822Z,19.80
2022-08-26T18:22:38.550Z,19.77
2022-08-26T18:25:06.879Z,19.76
2022-08-26T18:27:35.735Z,19.80
2022-08-26T18:30:07.060Z,19.86
2022-08-26T18:32:33.823Z,19.88
2022-08-26T18:35:00.744Z,19.90
2022-08-26T18:37:30.911Z,19.90
2022-08-26T18:39:59.601Z,19.79
2022-08-26T18:42:27.324Z,19.70
2022-08-26T18:44:54.218Z,19.58
2022-08-26T18:47:21.112Z,19.51
2022-08-26T18:49:48.853Z,19.49
2022-08-26T18:52:15.929Z,19.36
2022-08-26T18:54:43.225Z,19.27
2022-08-26T18:57:12.672Z,19.20
2022-08-26T18:59:40.919Z,19.04
2022-08-26T19:02:09.750Z,18.94
2022-08-26T19:04:38.739Z,18.85
2022-08-26T19:07:05.944Z,18.76
2022-08-26T19:09:33.379Z,18.69
2022-08-26T19:12:01.685Z,18.64
2022-08-26T19:14:29.157Z,18.57
2022-08-26T19:16:56.006Z,18.52
2022-08-26T19:19:26.393Z,18.49
2022-08-26T19:21:53.548Z,18.45
2022-08-26T19:24:21.039Z,18.39
2022-08-26T19:26:57.587Z,18.32
2022-08-26T19:29:26.870Z,18.28
2022-08-26T19:31:53.762Z,18.24
2022-08-26T19:34:20.841Z,18.17
2022-08-26T19:36:48.582Z,18.09
2022-08-26T19:39:15.901Z,18.05
2022-08-26T19:41:42.881Z,17.99
2022-08-26T19:44:13.206Z,17.95
2022-08-26T19:46:40.655Z,17.94
2022-08-26T19:49:07.811Z,17.91
2022-08-26T19:51:36.544Z,17.88
2022-08-26T19:54:04.450Z,17.83
2022-08-26T19:56:31.271Z,17.80
2022-08-26T19:58:58.433Z,17.72
2022-08-26T20:01:25.691Z,17.64
2022-08-26T20:03:52.948Z,17.57
2022-08-26T20:06:20.311Z,17.52
2022-08-26T20:08:47.510Z,17.45
2022-08-26T20:11:18.861Z,17.38
2022-08-26T20:13:47.432Z,17.32
2022-08-26T20:16:15.142Z,17.27
2022-08-26T20:19:01.946Z,17.22
2022-08-26T20:21:31.797Z,17.14
2022-08-26T20:24:02.240Z,17.04
2022-08-26T20:26:30.875Z,16.95
2022-08-26T20:28:58.019Z,16.86
2022-08-26T20:31:26.198Z,16.77
2022-08-26T20:33:53.650Z,16.68
2022-08-26T20:36:22.944Z,16.62
2022-08-26T20:38:50.487Z,16.56
2022-08-26T20:41:18.356Z,16.52
2022-08-26T20:43:46.350Z,16.47
2022-08-26T20:46:18.256Z,16.42
2022-08-26T20:48:47.120Z,16.37
2022-08-26T20:51:13.976Z,16.35
2022-08-26T20:53:43.598Z,16.30
2022-08-26T20:56:14.655Z,16.25
2022-08-26T20:58:42.053Z,16.20
2022-08-26T21:01:18.103Z,16.17
2022-08-26T21:03:45.578Z,16.13
2022-08-26T21:06:12.955Z,16.09
2022-08-26T21:08:43.225Z,16.06
2022-08-26T21:11:11.515Z,16.04
2022-08-26T21:14:01.241Z,16.03
2022-08-26T21:16:28.841Z,16.00
2022-08-26T21:18:57.540Z,15.99
2022-08-26T21:21:27.786Z,15.98
2022-08-26T21:23:55.076Z,15.96
2022-08-26T21:26:22.685Z,15.95
2022-08-26T21:28:52.517Z,15.93
2022-08-26T21:31:22.119Z,15.92
2022-08-26T21:33:51.035Z,15.91
2022-08-26T21:36:18.762Z,15.89
2022-08-26T21:38:46.139Z,15.89
2022-08-26T21:41:18.732Z,15.86
2022-08-26T21:43:47.312Z,15.83
2022-08-26T21:46:16.810Z,15.79
2022-08-26T21:48:50.355Z,15.78
2022-08-26T21:51:20.373Z,15.75
2022-08-26T21:53:47.446Z,15.75
2022-08-26T21:56:16.683Z,15.70
2022-08-26T21:58:44.493Z,15.66
2022-08-26T22:01:14.963Z,15.62
2022-08-26T22:03:46.754Z,15.60
2022-08-26T22:06:22.233Z,15.58
2022-08-26T22:08:49.213Z,15.57
2022-08-26T22:11:17.052Z,15.56
2022-08-26T22:13:45.213Z,15.53
2022-08-26T22:16:15.312Z,15.52
2022-08-26T22:18:44.186Z,15.52
2022-08-26T22:21:20.294Z,15.56
2022-08-26T22:23:50.392Z,15.62
2022-08-26T22:26:25.543Z,15.63
2022-08-26T22:28:58.730Z,15.59
2022-08-26T22:31:37.673Z,15.53
2022-08-26T22:34:11.522Z,15.51
2022-08-26T22:36:43.673Z,15.51
2022-08-26T22:39:15.505Z,15.51
2022-08-26T22:41:43.702Z,15.56
2022-08-26T22:44:11.913Z,15.59
2022-08-26T22:46:42.299Z,15.63
2022-08-26T22:49:11.526Z,15.68
2022-08-26T22:51:38.672Z,15.70
2022-08-26T22:54:05.957Z,15.68
2022-08-26T22:56:33.225Z,15.60
2022-08-26T22:59:00.077Z,15.55
2022-08-26T23:01:26.949Z,15.49
2022-08-26T23:03:55.236Z,15.43
2022-08-26T23:06:21.955Z,15.34
2022-08-26T23:08:49.438Z,15.31
2022-08-26T23:11:16.470Z,15.29
2022-08-26T23:13:43.178Z,15.29
2022-08-26T23:16:12.232Z,15.27
2022-08-26T23:18:40.907Z,15.26
2022-08-26T23:21:08.086Z,15.25
2022-08-26T23:23:35.680Z,15.22
2022-08-26T23:26:06.157Z,15.19
2022-08-26T23:28:33.790Z,15.17
2022-08-26T23:31:00.543Z,15.14
2022-08-26T23:33:47.443Z,15.13
2022-08-26T23:36:17.585Z,15.08
2022-08-26T23:38:48.562Z,15.03
2022-08-26T23:41:21.398Z,14.98
2022-08-26T23:43:48.271Z,14.95
2022-08-26T23:46:15.389Z,14.92
2022-08-26T23:48:42.144Z,14.88
2022-08-26T23:51:28.060Z,14.84
2022-08-26T23:53:55.156Z,14.81
2022-08-26T23:56:21.968Z,14.79
2022-08-26T23:58:48.667Z,14.73
